Time;durP1;ratioP1;P1;durP2;ratioP2;P2;SDS_P1;SDS_P2;PMS_P1;PMS_P2;Temp;Humidity;BMP_temperature;BMP_pressure;BME280_temperature;BME280_humidity;BME280_pressure;Samples;Min_cycle;Max_cycle;Signal;HPM_P1;HPM_P2
2023/01/10 02:12:14;;;;;;;2.85;2.30;;;;;;;4.82;79.89;96475.72;4935196;29;20047;-82
2023/01/10 02:14:43;;;;;;;2.80;2.40;;;;;;;4.77;80.02;96470.16;4936248;29;20058;-81
2023/01/10 02:17:12;;;;;;;2.40;2.20;;;;;;;4.73;80.41;96480.81;4935790;29;20062;-82
2023/01/10 02:46:51;;;;;;;4.32;2.28;;;;;;;4.85;80.98;96519.34;5881969;23;20074;-79
2023/01/10 02:49:19;;;;;;;2.45;1.65;;;;;;;4.80;81.09;96521.56;4991664;28;20166;-80
2023/01/10 02:51:46;;;;;;;1.70;1.60;;;;;;;4.75;80.61;96525.41;4975738;28;20054;-80
2023/01/10 02:54:18;;;;;;;3.20;2.10;;;;;;;4.77;81.26;96530.44;4967283;28;20560;-79
2023/01/10 02:57:12;;;;;;;2.10;1.90;;;;;;;4.83;82.67;96536.78;4992600;28;20468;-79
2023/01/10 03:00:00;;;;;;;2.58;2.30;;;;;;;4.86;81.99;96541.69;4963005;28;20304;-79
2023/01/10 03:02:45;;;;;;;3.05;2.35;;;;;;;4.87;82.01;96536.34;4976412;28;20051;-79
2023/01/10 03:05:22;;;;;;;4.80;2.53;;;;;;;4.85;81.31;96551.19;4974772;28;20050;-79
2023/01/10 03:07:55;;;;;;;4.38;2.70;;;;;;;4.79;81.22;96556.94;4966534;28;20508;-79
2023/01/10 03:10:29;;;;;;;6.85;3.10;;;;;;;4.77;82.04;96558.03;5013531;23;20423;-81
2023/01/10 03:13:02;;;;;;;5.85;2.67;;;;;;;4.78;82.01;96563.06;4996065;28;20061;-80
2023/01/10 03:15:36;;;;;;;3.13;2.35;;;;;;;4.80;82.49;96565.50;4990241;28;20055;-80
2023/01/10 03:18:10;;;;;;;3.25;2.28;;;;;;;4.85;82.30;96569.25;4995268;28;20530;-80
2023/01/10 03:20:41;;;;;;;3.58;2.45;;;;;;;4.88;81.90;96578.53;4974283;28;20059;-80
2023/01/10 03:23:11;;;;;;;2.30;2.10;;;;;;;4.88;81.76;96584.50;4972068;28;20051;-80
2023/01/10 03:25:40;;;;;;;4.43;2.65;;;;;;;4.90;81.76;96589.53;4976786;28;20061;-80
2023/01/10 03:28:13;;;;;;;2.30;2.10;;;;;;;4.91;81.61;96597.13;4970735;28;20107;-80
2023/01/10 03:30:45;;;;;;;2.05;1.85;;;;;;;4.88;81.96;96594.84;4961894;28;20047;-79
2023/01/10 03:33:17;;;;;;;2.25;1.80;;;;;;;4.90;81.85;96600.69;4976374;28;20086;-80
2023/01/10 03:35:56;;;;;;;9.80;2.45;;;;;;;4.91;82.09;96604.88;4970976;28;20069;-80
2023/01/10 03:38:31;;;;;;;2.55;2.17;;;;;;;4.91;81.93;96604.88;4956059;29;20134;-80
2023/01/10 03:41:05;;;;;;;2.20;2.00;;;;;;;4.94;81.94;96608.94;4963459;28;20505;-80
2023/01/10 03:46:29;;;;;;;4.55;2.47;;;;;;;4.89;81.81;96624.06;4974650;28;20062;-80
2023/01/10 03:49:02;;;;;;;3.90;1.98;;;;;;;4.85;81.36;96620.97;4975804;28;20105;-80
2023/01/10 03:51:31;;;;;;;3.42;2.22;;;;;;;4.81;81.25;96630.00;4965024;28;20063;-80
2023/01/10 03:54:00;;;;;;;3.25;1.75;;;;;;;4.77;81.31;96636.41;4956522;28;20421;-80
2023/01/10 03:56:28;;;;;;;1.80;1.67;;;;;;;4.74;81.40;96637.50;4966368;28;20055;-80
2023/01/10 03:58:55;;;;;;;1.77;1.60;;;;;;;4.74;81.31;96641.84;4967609;28;20043;-80
2023/01/10 04:01:23;;;;;;;1.45;1.38;;;;;;;4.71;81.53;96639.56;4966962;28;20082;-80
2023/01/10 04:03:50;;;;;;;1.50;1.40;;;;;;;4.73;82.31;96650.56;4956922;28;20058;-80
2023/01/10 04:06:19;;;;;;;1.00;1.00;;;;;;;4.75;81.72;96649.44;4964667;28;20055;-80
2023/01/10 04:08:47;;;;;;;2.15;1.00;;;;;;;4.77;81.18;96661.41;4975361;28;20051;-78
2023/01/10 04:11:14;;;;;;;1.73;1.20;;;;;;;4.74;81.21;96668.50;4968132;28;20484;-81
2023/01/10 04:13:42;;;;;;;0.98;0.98;;;;;;;4.73;81.43;96676.41;4955928;29;20054;-80
2023/01/10 04:16:10;;;;;;;0.90;0.90;;;;;;;4.69;80.91;96669.88;4961304;28;20061;-80
2023/01/10 04:18:38;;;;;;;1.17;0.77;;;;;;;4.66;80.83;96688.28;4974606;28;20050;-80
2023/01/10 04:21:06;;;;;;;0.60;0.60;;;;;;;4.61;81.10;96690.44;4975258;28;20507;-79
2023/01/10 04:23:35;;;;;;;1.20;0.70;;;;;;;4.61;81.32;96695.63;4955929;28;20493;-79
2023/01/10 04:26:02;;;;;;;0.50;0.50;;;;;;;4.58;81.47;96701.06;4955684;29;20051;-80
2023/01/10 04:28:30;;;;;;;0.90;0.60;;;;;;;4.56;81.41;96701.22;4955205;29;20059;-80
2023/01/10 04:30:57;;;;;;;0.82;0.60;;;;;;;4.53;81.32;96712.66;4955974;29;20147;-79
2023/01/10 04:33:27;;;;;;;3.80;0.90;;;;;;;4.51;80.77;96714.56;4956683;28;20502;-80
2023/01/10 04:35:54;;;;;;;0.73;0.60;;;;;;;4.48;80.81;96714.84;4975071;28;20524;-80
2023/01/10 04:38:22;;;;;;;0.50;0.50;;;;;;;4.50;81.37;96728.44;4974519;28;20521;-81
2023/01/10 04:40:54;;;;;;;1.15;0.80;;;;;;;4.52;81.80;96738.63;4978431;28;20059;-79
2023/01/10 04:43:22;;;;;;;0.57;0.55;;;;;;;4.54;81.82;96734.94;4979264;28;20057;-79
2023/01/10 04:45:49;;;;;;;1.75;0.60;;;;;;;4.56;81.17;96744.31;4976560;28;20137;-81
2023/01/10 04:48:18;;;;;;;0.60;0.60;;;;;;;4.52;81.00;96746.34;4964805;28;20043;-81
2023/01/10 04:50:49;;;;;;;0.63;0.50;;;;;;;4.47;81.20;96754.53;4956128;29;20062;-80
2023/01/10 04:53:17;;;;;;;0.80;0.50;;;;;;;4.46;80.98;96757.25;4955497;29;20047;-80
2023/01/10 04:55:45;;;;;;;3.60;0.65;;;;;;;4.42;81.44;96767.06;4956429;29;20063;-79
2023/01/10 04:58:14;;;;;;;0.70;0.70;;;;;;;4.43;81.41;96762.69;4954870;29;20051;-78
2023/01/10 05:00:42;;;;;;;1.02;0.88;;;;;;;4.44;81.70;96770.31;4955673;29;20058;-79
2023/01/10 05:03:09;;;;;;;1.42;0.82;;;;;;;4.45;81.93;96784.03;4955930;29;20058;-79
2023/01/10 05:05:37;;;;;;;0.70;0.70;;;;;;;4.44;80.99;96780.66;4955016;28;20059;-81
2023/01/10 05:08:05;;;;;;;1.23;1.00;;;;;;;4.40;80.83;96784.47;4962926;29;20055;-81
2023/01/10 05:10:32;;;;;;;1.50;1.20;;;;;;;4.38;80.84;96786.38;4974979;29;20054;-79
2023/01/10 05:13:00;;;;;;;3.22;2.03;;;;;;;4.34;81.08;96779.84;4966135;28;20062;-80
2023/01/10 05:15:29;;;;;;;3.50;1.52;;;;;;;4.33;81.20;96798.88;4956827;29;20051;-81
2023/01/10 05:18:00;;;;;;;4.50;1.55;;;;;;;4.34;81.18;96803.09;4955166;29;20517;-79
2023/01/10 05:20:28;;;;;;;1.80;1.48;;;;;;;4.32;80.99;96816.13;4956343;29;20047;-80
2023/01/10 05:22:55;;;;;;;2.53;1.40;;;;;;;4.30;80.57;96820.63;4956444;28;20581;-81
2023/01/10 05:25:23;;;;;;;1.75;1.55;;;;;;;4.30;81.14;96822.38;4959664;28;20063;-79
2023/01/10 05:27:50;;;;;;;3.33;1.40;;;;;;;4.31;81.07;96832.59;4955519;28;20085;-80
2023/01/10 05:30:18;;;;;;;4.03;1.95;;;;;;;4.34;80.90;96834.06;4969912;28;20054;-80
2023/01/10 05:32:47;;;;;;;2.88;1.67;;;;;;;4.32;80.21;96836.78;4972944;28;20255;-80
2023/01/10 05:35:16;;;;;;;2.63;1.58;;;;;;;4.31;80.81;96847.28;4972668;28;20055;-80
2023/01/10 05:37:44;;;;;;;6.60;1.92;;;;;;;4.32;81.17;96848.91;4972475;28;20054;-80
2023/01/10 05:40:12;;;;;;;3.78;2.25;;;;;;;4.33;80.90;96851.34;4972583;28;20061;-80
2023/01/10 05:42:40;;;;;;;4.18;1.67;;;;;;;4.37;80.99;96867.38;4973035;28;20047;-80
2023/01/10 05:45:08;;;;;;;4.15;1.90;;;;;;;4.33;80.44;96866.03;4972609;28;20047;-80
2023/01/10 05:47:36;;;;;;;3.13;1.83;;;;;;;4.31;80.05;96870.53;4973717;28;20421;-80
2023/01/10 05:50:05;;;;;;;6.13;1.80;;;;;;;4.31;79.93;96867.94;4973414;28;20504;-80
2023/01/10 05:52:33;;;;;;;3.15;2.05;;;;;;;4.33;79.75;96876.38;4974621;28;20070;-79
2023/01/10 05:55:00;;;;;;;2.95;1.70;;;;;;;4.37;80.16;96882.88;4974833;28;20134;-80
2023/01/10 05:57:28;;;;;;;3.80;1.58;;;;;;;4.39;79.42;96883.53;4974203;28;20501;-79
2023/01/10 05:59:55;;;;;;;8.65;1.80;;;;;;;4.41;79.49;96889.41;4973738;28;20051;-80
2023/01/10 06:02:25;;;;;;;4.57;1.83;;;;;;;4.42;79.55;96885.06;4974293;28;20051;-80
2023/01/10 06:04:54;;;;;;;2.95;1.42;;;;;;;4.43;79.45;96897.81;4974274;28;20051;-80
2023/01/10 06:07:22;;;;;;;6.53;2.00;;;;;;;4.47;79.49;96900.97;4974228;28;20105;-80
2023/01/10 06:09:50;;;;;;;4.95;2.10;;;;;;;4.48;79.00;96910.34;4973072;28;20047;-79
2023/01/10 06:12:18;;;;;;;6.20;2.72;;;;;;;4.48;79.14;96908.59;4974183;28;20051;-80
2023/01/10 06:14:46;;;;;;;5.72;2.47;;;;;;;4.49;79.94;96912.78;4974271;28;20070;-79
2023/01/10 06:17:13;;;;;;;9.80;2.85;;;;;;;4.53;79.68;96921.91;4974502;28;20050;-79
2023/01/10 06:19:41;;;;;;;8.05;2.72;;;;;;;4.59;80.33;96917.13;4976620;28;20057;-80
2023/01/10 06:22:08;;;;;;;3.58;2.15;;;;;;;4.60;79.50;96923.94;4977776;28;20050;-80
2023/01/10 06:24:37;;;;;;;5.07;2.50;;;;;;;4.56;79.22;96932.91;4977221;28;20496;-80
2023/01/10 06:27:05;;;;;;;5.63;2.40;;;;;;;4.52;79.12;96940.91;4977722;28;20051;-80
2023/01/10 06:29:32;;;;;;;4.35;2.63;;;;;;;4.52;80.07;96940.09;4976676;28;20117;-80
2023/01/10 06:32:00;;;;;;;4.47;3.20;;;;;;;4.54;80.03;96954.53;4977450;28;20074;-80
2023/01/10 06:34:27;;;;;;;6.97;3.08;;;;;;;4.56;79.69;96954.41;4977590;28;20058;-80
2023/01/10 06:36:55;;;;;;;6.72;2.70;;;;;;;4.60;80.35;96960.94;4977387;28;20047;-80
2023/01/10 06:39:22;;;;;;;4.95;3.15;;;;;;;4.65;79.81;96965.69;4976344;28;20429;-80
2023/01/10 06:41:51;;;;;;;4.95;2.92;;;;;;;4.63;79.31;96970.97;4977214;28;20137;-80
2023/01/10 06:44:19;;;;;;;5.10;3.00;;;;;;;4.61;79.27;96979.81;4977060;28;20062;-80
2023/01/10 06:46:46;;;;;;;8.65;3.90;;;;;;;4.63;79.57;96985.69;4977529;28;20050;-79
2023/01/10 06:49:14;;;;;;;10.38;3.40;;;;;;;4.62;79.19;96994.38;4976460;28;20050;-80
2023/01/10 06:51:41;;;;;;;16.55;4.90;;;;;;;4.62;78.91;97000.38;4977242;28;20149;-80
2023/01/10 06:54:09;;;;;;;8.15;3.67;;;;;;;4.59;78.64;97005.81;4976944;28;20050;-80
2023/01/10 06:56:36;;;;;;;10.30;4.30;;;;;;;4.59;79.74;97008.41;4977621;28;20445;-80
2023/01/10 06:59:05;;;;;;;6.50;3.58;;;;;;;4.64;79.27;97015.75;4976099;28;20432;-80
2023/01/10 07:01:35;;;;;;;5.65;4.20;;;;;;;4.65;79.24;97019.94;4977205;28;20249;-79
2023/01/10 07:04:02;;;;;;;15.18;6.78;;;;;;;4.69;79.39;97023.91;4977006;28;20047;-80
2023/01/10 07:06:30;;;;;;;10.65;4.75;;;;;;;4.69;78.51;97029.06;4976776;28;20057;-79
2023/01/10 07:08:58;;;;;;;8.13;4.50;;;;;;;4.69;79.26;97036.81;4976309;28;20398;-80
2023/01/10 07:11:25;;;;;;;8.13;3.63;;;;;;;4.72;79.48;97039.13;4976595;28;20070;-80
2023/01/10 07:13:53;;;;;;;9.60;4.03;;;;;;;4.79;79.61;97049.75;4976672;28;20536;-79
2023/01/10 07:16:22;;;;;;;8.45;4.45;;;;;;;4.79;79.44;97053.16;4976788;28;20066;-79
2023/01/10 07:18:49;;;;;;;12.02;5.93;;;;;;;4.78;79.41;97048.94;4975753;28;20145;-79
2023/01/10 07:21:18;;;;;;;8.80;3.80;;;;;;;4.79;78.88;97058.34;4976890;28;20087;-80
2023/01/10 07:23:47;;;;;;;8.55;3.72;;;;;;;4.74;78.16;97060.50;4976522;28;20050;-80
2023/01/10 07:26:17;;;;;;;7.20;3.58;;;;;;;4.73;79.29;97062.25;4976359;28;20133;-80
2023/01/10 07:28:49;;;;;;;9.50;3.58;;;;;;;4.70;78.79;97064.28;4975421;28;20050;-79
2023/01/10 07:31:18;;;;;;;9.10;3.87;;;;;;;4.66;79.58;97063.75;4976184;28;20391;-80
2023/01/10 07:33:47;;;;;;;7.47;3.45;;;;;;;4.68;79.60;97079.09;4976339;28;20051;-80
2023/01/10 07:36:15;;;;;;;9.00;3.42;;;;;;;4.69;79.02;97084.16;4976457;28;20142;-80
2023/01/10 07:38:42;;;;;;;7.97;3.17;;;;;;;4.71;79.69;97081.44;4974853;28;20059;-80
2023/01/10 07:41:10;;;;;;;11.05;4.53;;;;;;;4.76;79.59;97089.59;4976182;28;20055;-80
2023/01/10 07:43:37;;;;;;;6.88;2.92;;;;;;;4.80;79.34;97085.81;4975792;28;20066;-79
2023/01/10 07:46:08;;;;;;;8.52;4.18;;;;;;;4.86;79.33;97100.78;4976205;28;20137;-80
2023/01/10 07:48:36;;;;;;;11.35;5.35;;;;;;;4.90;78.65;97096.19;4982566;28;20038;-79
2023/01/10 07:51:05;;;;;;;15.90;5.38;;;;;;;4.91;78.46;97103.78;4998229;28;20081;-78
2023/01/10 07:53:33;;;;;;;9.75;4.30;;;;;;;4.94;78.64;97111.28;4985940;28;20323;-80
2023/01/10 07:56:02;;;;;;;11.43;4.82;;;;;;;5.01;79.28;97113.31;4977247;28;20050;-80
2023/01/10 07:58:30;;;;;;;7.95;4.60;;;;;;;5.01;77.91;97128.81;4975630;28;20066;-79
2023/01/10 08:00:58;;;;;;;13.68;5.57;;;;;;;5.00;78.65;97134.97;4975643;28;20057;-80
2023/01/10 08:03:26;;;;;;;11.52;4.10;;;;;;;5.02;78.74;97138.22;4975876;28;20117;-79
2023/01/10 08:05:58;;;;;;;9.65;3.42;;;;;;;5.03;77.26;97140.69;4975774;28;20086;-79
2023/01/10 08:08:28;;;;;;;9.20;4.38;;;;;;;5.02;77.68;97148.56;4974962;28;20072;-80
2023/01/10 08:10:58;;;;;;;10.00;3.50;;;;;;;5.03;77.74;97145.03;4975620;28;20058;-80
2023/01/10 08:13:26;;;;;;;9.32;3.33;;;;;;;5.02;76.88;97140.81;4975606;28;20059;-80
2023/01/10 08:15:53;;;;;;;10.90;2.80;;;;;;;5.03;77.64;97137.25;4975491;28;20073;-80
2023/01/10 08:18:22;;;;;;;8.23;2.67;;;;;;;5.08;78.42;97132.53;4974164;28;20047;-80
2023/01/10 08:20:51;;;;;;;7.05;3.33;;;;;;;5.11;78.57;97134.84;4975056;28;20050;-79
2023/01/10 08:23:20;;;;;;;13.30;3.38;;;;;;;5.12;77.87;97136.47;4975462;28;20047;-80
2023/01/10 08:25:50;;;;;;;10.85;3.05;;;;;;;5.13;77.25;97148.44;4975294;28;20051;-79
2023/01/10 08:28:17;;;;;;;8.93;2.78;;;;;;;5.16;77.85;97158.53;4974545;28;20524;-80
2023/01/10 08:30:45;;;;;;;8.40;3.28;;;;;;;5.20;78.59;97164.25;4974972;28;20050;-80
2023/01/10 08:33:16;;;;;;;9.18;2.50;;;;;;;5.25;79.19;97169.84;4975056;28;20090;-80
2023/01/10 08:35:43;;;;;;;6.45;2.25;;;;;;;5.27;78.29;97173.94;4975237;28;20050;-80
2023/01/10 08:38:11;;;;;;;8.63;2.60;;;;;;;5.28;77.63;97178.16;4974546;28;20058;-79
2023/01/10 08:40:39;;;;;;;10.23;3.47;;;;;;;5.27;77.87;97175.69;4974675;28;20051;-80
2023/01/10 08:43:10;;;;;;;9.45;2.33;;;;;;;5.28;78.68;97180.72;4974912;28;20441;-80
2023/01/10 08:45:38;;;;;;;9.07;2.97;;;;;;;5.28;77.59;97183.31;4975112;28;20412;-80
2023/01/10 08:48:08;;;;;;;5.93;2.13;;;;;;;5.27;77.17;97192.03;4974604;28;20066;-80
2023/01/10 08:50:35;;;;;;;6.15;2.65;;;;;;;5.26;76.62;97195.56;4974198;28;20497;-79
2023/01/10 08:53:03;;;;;;;12.15;3.75;;;;;;;5.23;76.04;97195.84;4974946;28;20055;-80
2023/01/10 08:55:34;;;;;;;9.65;2.50;;;;;;;5.25;77.29;97188.78;4974787;28;20051;-80
2023/01/10 08:58:02;;;;;;;10.55;3.22;;;;;;;5.30;78.35;97201.31;4974196;28;20129;-80
2023/01/10 09:00:31;;;;;;;6.15;2.47;;;;;;;5.32;77.45;97207.97;4974310;28;20716;-80
2023/01/10 09:02:58;;;;;;;7.32;2.22;;;;;;;5.33;77.24;97219.94;4974474;28;20047;-80
2023/01/10 09:05:26;;;;;;;7.13;2.85;;;;;;;5.39;77.97;97221.19;4975384;28;20057;-80
2023/01/10 09:07:58;;;;;;;5.57;2.78;;;;;;;5.41;78.10;97223.66;4974918;28;20129;-80
2023/01/10 09:10:28;;;;;;;6.40;2.33;;;;;;;5.41;77.34;97223.66;4975409;28;20052;-81
2023/01/10 09:12:55;;;;;;;8.25;2.35;;;;;;;5.41;77.32;97215.88;4975451;28;20137;-80
2023/01/10 09:15:25;;;;;;;5.88;2.53;;;;;;;5.42;77.35;97220.91;4974712;28;20481;-80
2023/01/10 09:17:55;;;;;;;7.10;2.70;;;;;;;5.37;76.33;97226.50;4974514;28;20485;-80
2023/01/10 09:20:24;;;;;;;6.82;2.95;;;;;;;5.34;76.63;97224.19;4974177;28;20298;-80
2023/01/10 09:22:52;;;;;;;7.25;2.33;;;;;;;5.32;76.57;97217.50;4974106;28;20058;-80
2023/01/10 09:25:19;;;;;;;7.15;2.25;;;;;;;5.29;76.75;97216.00;4974199;28;20063;-80
2023/01/10 09:27:47;;;;;;;12.38;2.50;;;;;;;5.29;77.22;97221.19;4973938;28;20062;-80
2023/01/10 09:30:15;;;;;;;9.63;2.75;;;;;;;5.31;76.39;97239.97;4974017;28;20078;-80
2023/01/10 09:32:43;;;;;;;6.18;2.80;;;;;;;5.35;77.40;97241.31;4974107;28;20057;-80
2023/01/10 09:35:12;;;;;;;8.05;2.08;;;;;;;5.40;77.00;97253.03;4974089;28;20134;-80
2023/01/10 09:37:39;;;;;;;13.63;3.42;;;;;;;5.40;76.32;97260.81;4973949;28;20046;-80
2023/01/10 09:40:09;;;;;;;5.53;2.00;;;;;;;5.36;75.78;97276.59;4973573;28;20047;-80
2023/01/10 09:42:55;;;;;;;7.57;1.90;;;;;;;5.36;74.31;97276.59;4974463;28;20046;-80
2023/01/10 09:45:35;;;;;;;5.53;2.03;;;;;;;5.38;75.16;97281.66;4974064;28;20051;-80
2023/01/10 09:48:06;;;;;;;6.32;1.70;;;;;;;5.37;75.38;97291.16;4973414;28;20051;-80
2023/01/10 09:50:50;;;;;;;9.60;2.60;;;;;;;5.40;75.44;97279.75;4973966;28;20057;-80
2023/01/10 09:53:21;;;;;;;10.80;2.67;;;;;;;5.39;75.13;97278.09;4976216;28;20425;-80
2023/01/10 09:55:52;;;;;;;6.82;2.47;;;;;;;5.41;75.84;97285.75;4978484;28;20054;-80
2023/01/10 09:58:21;;;;;;;7.95;2.00;;;;;;;5.41;76.25;97280.56;4977112;28;20449;-80
2023/01/10 10:00:53;;;;;;;7.88;2.47;;;;;;;5.43;75.75;97286.44;4977758;28;20043;-80
2023/01/10 10:03:29;;;;;;;6.22;2.05;;;;;;;5.43;74.03;97289.84;4978001;28;20046;-80
2023/01/10 10:05:58;;;;;;;10.48;2.25;;;;;;;5.40;75.27;97290.09;4977590;28;20055;-80
2023/01/10 10:08:38;;;;;;;14.07;2.65;;;;;;;5.42;74.91;97288.19;4977073;28;20432;-80
2023/01/10 10:11:21;;;;;;;5.43;2.13;;;;;;;5.42;74.09;97288.19;4977514;28;20050;-80
2023/01/10 10:13:56;;;;;;;9.23;2.60;;;;;;;5.46;76.93;97297.31;4977813;28;20050;-80
2023/01/10 10:16:36;;;;;;;5.00;1.90;;;;;;;5.52;77.10;97298.56;4977485;28;20050;-80
2023/01/10 10:19:15;;;;;;;12.93;2.70;;;;;;;5.53;75.76;97292.44;4976735;28;20051;-81
2023/01/10 10:21:57;;;;;;;6.40;2.10;;;;;;;5.55;76.37;97293.97;4977560;28;20431;-80
2023/01/10 10:24:42;;;;;;;6.82;1.80;;;;;;;5.58;76.07;97292.88;4977275;28;20604;-80
2023/01/10 10:27:21;;;;;;;6.47;2.10;;;;;;;5.58;74.67;97282.53;4977639;28;20420;-80
2023/01/10 10:30:07;;;;;;;11.63;2.70;;;;;;;5.60;76.26;97284.94;4990960;28;20074;-80
2023/01/10 10:32:51;;;;;;;7.57;2.00;;;;;;;5.65;77.05;97291.38;5000216;28;20110;-80
2023/01/10 10:35:27;;;;;;;8.23;2.63;;;;;;;5.67;74.67;97296.44;4979117;28;20061;-80
2023/01/10 10:38:01;;;;;;;7.25;1.70;;;;;;;5.69;75.34;97297.94;4977053;28;20143;-80
2023/01/10 10:40:36;;;;;;;5.22;1.85;;;;;;;5.71;76.39;97298.63;4977106;28;20069;-80
2023/01/10 10:43:14;;;;;;;7.28;2.03;;;;;;;5.73;76.11;97304.47;4977130;28;20138;-80
2023/01/10 10:45:46;;;;;;;8.98;2.45;;;;;;;5.77;75.82;97298.09;4976937;28;20051;-80
2023/01/10 10:48:18;;;;;;;6.43;1.75;;;;;;;5.80;76.44;97307.34;4976204;28;20568;-80
2023/01/10 10:50:54;;;;;;;8.80;1.90;;;;;;;5.81;75.75;97308.97;4977017;28;20061;-80
2023/01/10 10:53:23;;;;;;;6.68;2.03;;;;;;;5.76;73.72;97309.38;4977129;28;20061;-80
2023/01/10 10:55:51;;;;;;;7.55;2.85;;;;;;;5.74;74.90;97306.09;4976958;28;20043;-80
2023/01/10 10:58:19;;;;;;;7.47;2.30;;;;;;;5.76;75.30;97301.59;4976284;28;20156;-80
2023/01/10 11:00:46;;;;;;;7.40;3.58;;;;;;;5.78;75.92;97304.88;4976866;28;20061;-80
2023/01/10 11:03:25;;;;;;;11.02;2.85;;;;;;;5.79;74.44;97300.50;4976641;28;20043;-80
2023/01/10 11:05:53;;;;;;;7.15;2.55;;;;;;;5.78;74.52;97302.28;4976057;28;20058;-80
2023/01/10 11:08:24;;;;;;;8.75;1.88;;;;;;;5.80;74.20;97285.81;4976242;28;20501;-80
2023/01/10 11:10:54;;;;;;;6.07;2.13;;;;;;;5.81;74.63;97287.44;4976858;28;20049;-81
2023/01/10 11:13:30;;;;;;;7.50;1.75;;;;;;;5.81;74.75;97287.44;4976153;28;20057;-80
2023/01/10 11:15:59;;;;;;;6.57;1.95;;;;;;;5.85;75.34;97283.63;4976364;28;20056;-80
2023/01/10 11:18:28;;;;;;;8.63;2.63;;;;;;;5.89;75.86;97277.25;4976489;28;20047;-80
2023/01/10 11:20:59;;;;;;;10.07;3.35;;;;;;;5.90;74.35;97281.44;4975874;28;20497;-80
2023/01/10 11:23:40;;;;;;;7.15;2.20;;;;;;;5.93;74.65;97287.19;4976172;28;20117;-81
2023/01/10 11:26:10;;;;;;;8.30;2.42;;;;;;;5.97;73.40;97287.78;4976315;28;20077;-80
2023/01/10 11:28:38;;;;;;;6.13;3.03;;;;;;;6.00;74.12;97292.66;4976059;28;20039;-81
2023/01/10 11:31:06;;;;;;;4.38;1.40;;;;;;;6.02;73.58;97290.75;4976272;28;20501;-80
2023/01/10 11:33:35;;;;;;;6.32;1.40;;;;;;;5.99;73.41;97296.19;4976273;28;20395;-80
2023/01/10 11:36:05;;;;;;;2.97;1.55;;;;;;;6.00;72.63;97292.66;4976458;28;20061;-80
2023/01/10 11:38:34;;;;;;;5.22;1.65;;;;;;;6.03;72.90;97286.41;4975303;28;20138;-80
2023/01/10 11:41:05;;;;;;;4.47;1.80;;;;;;;6.05;72.55;97294.84;4976040;28;20061;-80
2023/01/10 11:43:35;;;;;;;6.03;2.15;;;;;;;6.10;74.65;97303.88;4975982;28;20054;-80
2023/01/10 11:46:06;;;;;;;4.40;2.30;;;;;;;6.16;73.45;97292.94;4975951;28;20051;-80
2023/01/10 11:48:44;;;;;;;4.30;1.75;;;;;;;6.19;71.68;97292.66;4975239;28;20043;-80
2023/01/10 11:51:36;;;;;;;7.55;2.22;;;;;;;6.22;73.36;97290.75;4975875;28;20082;-80
2023/01/10 11:54:06;;;;;;;7.90;2.10;;;;;;;6.19;72.10;97282.31;4976015;28;20412;-80
2023/01/10 11:56:38;;;;;;;5.75;1.98;;;;;;;6.23;72.91;97287.19;4975507;28;20535;-80
2023/01/10 11:59:12;;;;;;;3.72;1.67;;;;;;;6.26;71.42;97286.94;4975353;28;20394;-80
2023/01/10 12:01:43;;;;;;;7.35;2.60;;;;;;;6.30;72.36;97277.94;4975867;28;20049;-80
2023/01/10 12:04:14;;;;;;;3.92;1.80;;;;;;;6.32;72.35;97270.81;4976048;28;20420;-80
2023/01/10 12:06:44;;;;;;;6.78;1.80;;;;;;;6.30;72.57;97280.53;4975434;28;20058;-80
2023/01/10 12:09:38;;;;;;;4.10;1.50;;;;;;;6.30;72.28;97296.91;4974739;28;20057;-80
2023/01/10 12:12:17;;;;;;;2.78;1.15;;;;;;;6.27;71.81;97288.56;4974795;28;20046;-80
2023/01/10 12:14:45;;;;;;;4.93;1.40;;;;;;;6.25;72.29;97280.94;4975575;28;20177;-80
2023/01/10 12:17:23;;;;;;;4.07;1.40;;;;;;;6.23;69.64;97284.63;4975557;28;20051;-81
2023/01/10 12:19:52;;;;;;;3.45;1.13;;;;;;;6.23;72.14;97282.03;4974877;28;20061;-80
2023/01/10 12:22:22;;;;;;;8.27;1.58;;;;;;;6.22;71.73;97276.03;4975561;28;20091;-80
2023/01/10 12:24:53;;;;;;;5.72;2.40;;;;;;;6.23;70.59;97274.25;4975174;28;20078;-80
2023/01/10 12:27:26;;;;;;;8.63;2.20;;;;;;;6.21;70.01;97273.56;4975173;28;20054;-80
2023/01/10 12:30:00;;;;;;;5.00;2.42;;;;;;;6.24;72.60;97283.69;4974512;28;20078;-80
2023/01/10 12:32:33;;;;;;;4.35;1.77;;;;;;;6.29;70.77;97286.66;4975111;28;20493;-80
2023/01/10 12:35:04;;;;;;;5.78;2.53;;;;;;;6.29;71.38;97276.28;4975107;28;20501;-80
2023/01/10 12:37:39;;;;;;;5.28;2.65;;;;;;;6.25;70.85;97287.88;4974866;28;20520;-80
2023/01/10 12:40:14;;;;;;;4.93;2.20;;;;;;;6.22;71.10;97288.19;4974234;28;20058;-80
2023/01/10 12:45:42;;;;;;;4.95;1.30;;;;;;;6.12;71.90;97272.63;4975636;28;20059;-80
2023/01/10 12:48:17;;;;;;;4.78;2.25;;;;;;;6.14;70.74;97265.53;4974564;28;20054;-80
2023/01/10 12:50:52;;;;;;;13.10;2.63;;;;;;;6.18;70.63;97269.50;4974832;28;20397;-81
2023/01/10 12:53:28;;;;;;;6.85;1.50;;;;;;;6.18;69.49;97269.50;4975346;28;20047;-81
2023/01/10 12:55:58;;;;;;;6.45;1.70;;;;;;;6.14;71.45;97263.78;4975215;28;20058;-80
2023/01/10 12:58:38;;;;;;;5.07;1.95;;;;;;;6.17;73.59;97270.47;4973955;28;20501;-81
2023/01/10 13:01:07;;;;;;;7.25;2.50;;;;;;;6.21;73.33;97268.38;4974782;28;20061;-80
2023/01/10 13:03:35;;;;;;;3.50;1.45;;;;;;;6.20;72.03;97265.00;4974406;28;20078;-81
2023/01/10 13:06:03;;;;;;;2.15;1.20;;;;;;;6.25;72.40;97259.38;4974739;28;20061;-80
2023/01/10 13:08:34;;;;;;;4.82;1.40;;;;;;;6.35;73.29;97244.66;4974245;28;20055;-80
2023/01/10 13:11:03;;;;;;;5.03;1.10;;;;;;;6.46;72.74;97257.44;4994484;28;20073;-80
2023/01/10 13:13:35;;;;;;;3.75;1.90;;;;;;;6.52;70.77;97254.31;4993516;28;20054;-80
2023/01/10 13:16:17;;;;;;;7.35;2.40;;;;;;;6.63;72.58;97257.69;4976139;28;20115;-81
2023/01/10 13:19:00;;;;;;;4.37;1.53;;;;;;;6.73;70.51;97248.91;4974338;28;20046;-80
2023/01/10 13:21:28;;;;;;;4.00;1.30;;;;;;;6.79;71.73;97263.09;4974639;28;20054;-80
2023/01/10 13:23:59;;;;;;;5.68;1.60;;;;;;;6.81;70.30;97258.59;4974147;28;20493;-80
2023/01/10 13:26:27;;;;;;;6.18;1.50;;;;;;;6.81;70.05;97261.19;4974201;28;20051;-80
2023/01/10 13:28:58;;;;;;;6.15;1.92;;;;;;;6.79;69.74;97269.09;4972979;28;20054;-80
2023/01/10 13:31:29;;;;;;;5.72;1.15;;;;;;;6.81;71.25;97271.56;4975308;28;20055;-81
2023/01/10 13:34:00;;;;;;;5.40;1.17;;;;;;;6.83;70.33;97274.81;4975405;28;20417;-81
2023/01/10 13:36:34;;;;;;;4.10;1.67;;;;;;;6.84;70.55;97270.44;4975298;28;20057;-81
2023/01/10 13:39:07;;;;;;;7.40;2.17;;;;;;;6.84;70.25;97266.06;4974343;28;20058;-81
2023/01/10 13:45:27;;;;;;;7.30;1.90;;;;;;;6.81;69.14;97262.00;4972863;28;20451;-80
2023/01/10 13:48:03;;;;;;;3.15;1.52;;;;;;;6.78;72.19;97259.69;4973838;28;20055;-81
2023/01/10 13:50:50;;;;;;;6.25;1.67;;;;;;;6.78;70.17;97261.47;4973677;28;20394;-81
2023/01/10 13:53:59;;;;;;;4.53;1.27;;;;;;;6.80;68.40;97254.38;4973674;28;20058;-80
2023/01/10 13:56:38;;;;;;;2.92;1.10;;;;;;;6.80;71.06;97259.56;4952782;28;20130;-80
2023/01/10 14:04:50;;;;;;;5.50;1.75;;;;;;;6.84;71.71;97265.25;4974107;28;20097;-80
2023/01/10 14:07:24;;;;;;;9.80;2.10;;;;;;;6.84;69.10;97268.66;4973803;28;20050;-80
2023/01/10 14:09:58;;;;;;;6.78;1.50;;;;;;;6.80;68.42;97265.56;4973052;28;20081;-80
2023/01/10 14:12:32;;;;;;;4.28;1.15;;;;;;;6.82;71.36;97275.75;4973807;28;20077;-80
2023/01/10 14:15:04;;;;;;;2.70;1.25;;;;;;;6.86;71.66;97278.91;4974004;28;20055;-80
2023/01/10 14:17:36;;;;;;;8.95;1.83;;;;;;;6.86;72.08;97279.72;4973769;28;20069;-81
2023/01/10 14:20:13;;;;;;;3.50;1.85;;;;;;;6.89;71.30;97289.81;4973046;28;20051;-80
2023/01/10 14:22:56;;;;;;;4.45;1.58;;;;;;;6.89;70.90;97286.41;4973744;28;20146;-80
2023/01/10 14:25:27;;;;;;;6.35;2.22;;;;;;;6.86;68.71;97284.09;4973668;28;20069;-81
2023/01/10 14:27:56;;;;;;;5.35;1.70;;;;;;;6.83;70.23;97279.19;4973348;28;20051;-80
2023/01/10 14:30:27;;;;;;;6.43;1.95;;;;;;;6.82;68.66;97283.53;4973405;28;20054;-81
2023/01/10 14:32:59;;;;;;;5.10;1.58;;;;;;;6.79;69.16;97287.25;4973520;28;20497;-81
2023/01/10 14:35:32;;;;;;;5.85;1.77;;;;;;;6.77;68.75;97289.16;4973575;28;20090;-80
2023/01/10 14:38:02;;;;;;;5.97;2.00;;;;;;;6.77;69.28;97281.38;4973194;28;20055;-81
2023/01/10 14:40:39;;;;;;;7.43;2.47;;;;;;;6.77;67.17;97280.56;4976868;28;20055;-80
2023/01/10 14:43:11;;;;;;;10.48;1.80;;;;;;;6.78;70.68;97282.22;4977327;28;20047;-80
2023/01/10 14:45:45;;;;;;;6.97;2.78;;;;;;;6.79;69.04;97279.47;4977013;28;20065;-81
2023/01/10 14:48:29;;;;;;;6.97;2.78;;;;;;;6.80;69.74;97277.72;4976227;28;20425;-81
2023/01/10 14:51:16;;;;;;;5.63;2.25;;;;;;;6.79;72.33;97276.06;4976846;28;20050;-81
2023/01/10 14:53:44;;;;;;;2.70;1.35;;;;;;;6.78;71.68;97271.84;4976660;28;20134;-80